Rebersburg, Pennsylvania
Current Conditions -  °F | °C
As of 3:15 AM on Monday 26 Jan 2015 (Local Time) from KUNV Reporting Station
Light Snow Light Snow  
Wind Chill:   Ceiling: 3200
Heat Index: 19°   Visibility: 1.7mi
Dew Point: 15°   Wind: 13mph
Humidity: 88%   Direction: 50°NE
Pressure: 29.85"   Gusts: 21mph
Location:  40.94°N, 77.44°W
Report Text: KUNV 260815Z AUTO 05011G18KT 1 3/4SM -SN SCT012 OVC032 M07/M09 A2985 RMK AO2 T10751092
Loading
Personal Weather Stations






























Interactive Weather Map New forecast layout! Learn more

10-Day Weather Forecast

Advertisements
Track Severe Weather on mobile